CW2293 Weather Reports


Display with metric or nautical units.
time (UTC)temp
F
wind
direction
speed
MPH
gust
MPH
rain 1hr
in
rain 24hr
in
rain mn
in
humidity
%
barometer
mb
20210922150304 73 244 2.0 5.0 0.00 0.00 0.00 84 1021.7
20210922145803 73 106 2.0 6.0 0.00 0.00 0.00 84 1021.8
20210922145306 73 199 2.0 6.0 0.00 0.00 0.00 84 1021.9
20210922144802 73 128 5.0 10.0 0.00 0.00 0.00 85 1021.9
20210922144302 73 180 4.0 10.0 0.00 0.00 0.00 85 1022.0
20210922143802 73 171 3.0 8.0 0.00 0.00 0.00 86 1022.0
20210922143302 72 262 5.0 9.0 0.00 0.00 0.00 86 1022.1
20210922142803 72 145 3.0 8.0 0.00 0.00 0.00 87 1022.2
20210922142305 72 96 2.0 6.0 0.00 0.00 0.00 87 1022.2
20210922141802 72 101 4.0 8.0 0.00 0.00 0.00 87 1022.3
20210922141302 72 143 3.0 7.0 0.00 0.00 0.00 88 1022.3
20210922140802 72 161 3.0 7.0 0.00 0.00 0.00 88 1022.2
20210922140302 71 167 5.0 9.0 0.00 0.00 0.00 88 1022.2
20210922135802 71 153 4.0 9.0 0.00 0.00 0.00 89 1022.2
20210922135306 71 144 2.0 6.0 0.00 0.00 0.00 90 1022.3
20210922134802 70 48 4.0 9.0 0.00 0.00 0.00 90 1022.4
20210922134302 70 97 2.0 8.0 0.00 0.00 0.00 90 1022.4
20210922133802 70 105 4.0 10.0 0.00 0.00 0.00 91 1022.4
20210922133304 69 87 3.0 8.0 0.00 0.00 0.00 91 1022.4
20210922132803 69 47 2.0 6.0 0.00 0.00 0.00 91 1022.4
20210922132305 69 153 1.0 5.0 0.00 0.00 0.00 92 1022.4
20210922131802 69 173 3.0 9.0 0.00 0.00 0.00 92 1022.5
20210922131302 69 114 3.0 8.0 0.00 0.00 0.00 92 1022.5
20210922130802 68 122 3.0 6.0 0.00 0.00 0.00 92 1022.5
20210922130302 68 85 2.0 6.0 0.00 0.00 0.00 92 1022.5
20210922125802 68 110 2.0 5.0 0.00 0.00 0.00 92 1022.5
20210922125305 68 316 1.0 7.0 0.00 0.00 0.00 93 1022.5
20210922124802 67 158 0.0 3.0 0.00 0.00 0.00 93 1022.5
20210922124302 67 115 1.0 7.0 0.00 0.00 0.00 93 1022.5
20210922123802 67 106 0.0 2.0 0.00 0.00 0.00 93 1022.5
20210922123302 67 32 1.0 5.0 0.00 0.00 0.00 93 1022.5
20210922122802 66 118 0.0 2.0 0.00 0.00 0.00 93 1022.6
20210922122306 66 93 1.0 3.0 0.00 0.00 0.00 93 1022.5
20210922121802 66 298 1.0 3.0 0.00 0.00 0.00 93 1022.6
20210922121303 65 157 1.0 3.0 0.00 0.00 0.00 93 1022.6
20210922120802 65 164 2.0 5.0 0.00 0.00 0.00 93 1022.6
20210922120302 65 114 1.0 7.0 0.00 0.00 0.00 93 1022.6
20210922115802 65 85 0.0 0.0 0.00 0.00 0.00 94 1022.6
20210922115305 64 85 0.0 0.0 0.00 0.00 0.00 93 1022.7
20210922114802 64 85 0.0 0.0 0.00 0.00 0.00 93 1022.7
20210922114304 64 85 0.0 0.0 0.00 0.01 0.00 93 1022.7
20210922113803 64 85 0.0 0.0 0.00 0.02 0.00 93 1022.7
20210922113303 64 85 0.0 0.0 0.00 0.03 0.00 93 1022.6
20210922112802 63 85 0.0 0.0 0.00 0.04 0.00 93 1022.7
20210922112305 63 85 0.0 0.0 0.00 0.04 0.00 93 1022.7
20210922111802 63 85 0.0 0.0 0.00 0.07 0.00 93 1022.8
20210922111303 63 85 0.0 0.0 0.00 0.15 0.00 93 1022.7
20210922110803 63 85 0.0 0.0 0.00 0.23 0.00 93 1022.8
20210922110303 64 85 0.0 0.0 0.00 0.30 0.00 93 1022.8
20210922105803 64 85 0.0 0.0 0.00 0.38 0.00 93 1022.8
20210922105305 64 85 0.0 0.0 0.00 0.44 0.00 93 1022.8
20210922104802 64 85 0.0 0.0 0.00 0.45 0.00 93 1022.8
20210922104302 64 85 0.0 0.0 0.00 0.45 0.00 93 1022.8
20210922103802 65 85 0.0 0.0 0.00 0.45 0.00 93 1022.9
20210922103302 65 85 0.0 0.0 0.00 0.45 0.00 93 1022.9
20210922102803 65 85 0.0 2.0 0.00 0.45 0.00 93 1022.8
20210922102305 65 103 0.0 3.0 0.00 0.45 0.00 93 1022.9
20210922101802 65 282 1.0 5.0 0.00 0.45 0.00 93 1022.8
20210922101302 65 202 0.0 5.0 0.00 0.45 0.00 93 1022.9
20210922100802 65 119 0.0 3.0 0.00 0.45 0.00 93 1022.9
20210922100302 65 93 1.0 3.0 0.00 0.45 0.00 93 1022.9
20210922095802 65 80 1.0 2.0 0.00 0.45 0.00 93 1022.9
20210922095305 65 45 0.0 3.0 0.00 0.45 0.00 93 1022.9
20210922094802 65 115 1.0 3.0 0.00 0.45 0.00 92 1022.9
20210922094302 65 95 0.0 2.0 0.00 0.45 0.00 92 1023.0
20210922093803 65 157 0.0 0.0 0.00 0.45 0.00 92 1023.0
20210922093302 65 157 0.0 0.0 0.00 0.45 0.00 92 1023.0
20210922092802 65 153 1.0 5.0 0.00 0.45 0.00 92 1023.0
20210922092306 65 130 0.0 5.0 0.00 0.45 0.00 92 1023.1
20210922091803 65 189 0.0 2.0 0.00 0.45 0.00 92 1023.1
20210922091303 65 98 1.0 3.0 0.00 0.45 0.00 92 1023.1
20210922090803 65 3 0.0 3.0 0.00 0.45 0.00 92 1023.2
20210922090303 65 106 2.0 6.0 0.00 0.45 0.00 92 1023.3
20210922085803 65 27 1.0 5.0 0.00 0.45 0.00 92 1023.3
20210922085305 65 96 1.0 7.0 0.00 0.45 0.00 92 1023.3
20210922084802 66 78 0.0 0.0 0.00 0.45 0.00 92 1023.3
20210922084302 66 126 0.0 0.0 0.00 0.45 0.00 92 1023.2
20210922083802 66 126 0.0 0.0 0.00 0.45 0.00 92 1023.2
20210922083303 66 126 0.0 0.0 0.00 0.45 0.00 92 1023.2
20210922082802 66 126 0.0 0.0 0.00 0.45 0.00 92 1023.2
20210922082305 66 126 1.0 3.0 0.00 0.45 0.00 92 1023.2
20210922081802 66 88 1.0 3.0 0.00 0.45 0.00 92 1023.2
20210922081302 66 72 2.0 6.0 0.00 0.45 0.00 92 1023.3
20210922080802 66 256 0.0 0.0 0.00 0.45 0.00 92 1023.3
20210922080302 66 256 1.0 2.0 0.00 0.45 0.00 92 1023.3
20210922075802 66 345 1.0 3.0 0.00 0.45 0.00 92 1023.3
20210922075305 66 322 1.0 3.0 0.00 0.45 0.00 92 1023.4
20210922074802 66 130 3.0 6.0 0.00 0.45 0.00 92 1023.5
20210922074302 66 7 1.0 3.0 0.00 0.45 0.00 92 1023.6
20210922073802 66 208 1.0 3.0 0.00 0.45 0.00 92 1023.6
20210922073302 66 298 1.0 3.0 0.00 0.45 0.00 92 1023.7
20210922072802 66 224 0.0 2.0 0.00 0.45 0.00 92 1023.7
20210922072304 66 239 1.0 2.0 0.00 0.45 0.00 92 1023.7
20210922071802 66 143 0.0 2.0 0.00 0.45 0.00 92 1023.8
20210922071303 66 168 1.0 3.0 0.00 0.45 0.00 92 1023.8
20210922070803 66 193 1.0 2.0 0.00 0.45 0.00 92 1023.8
20210922070302 66 100 2.0 2.0 0.00 0.45 0.00 92 1023.8
20210922065802 66 136 2.0 7.0 0.00 0.45 0.00 92 1023.9
20210922065305 65 150 2.0 5.0 0.00 0.45 0.00 92 1023.9
20210922064803 65 128 2.0 5.0 0.00 0.45 0.00 92 1024.0
20210922064303 65 132 2.0 5.0 0.00 0.45 0.00 92 1024.0
20210922063803 65 51 0.0 3.0 0.00 0.45 0.00 92 1024.1
20210922063303 65 119 0.0 1.0 0.00 0.45 0.00 92 1024.1
20210922062803 65 233 0.0 2.0 0.00 0.45 0.00 92 1024.1
20210922062305 64 100 1.0 5.0 0.00 0.45 0.00 92 1024.1
20210922061802 64 140 0.0 5.0 0.00 0.45 0.00 92 1024.1
20210922061302 64 230 0.0 0.0 0.00 0.45 0.00 92 1024.2
20210922060802 64 230 0.0 0.0 0.00 0.45 0.00 92 1024.3
20210922060302 64 230 0.0 1.0 0.00 0.45 0.00 92 1024.4
20210922055802 64 30 0.0 1.0 0.00 0.45 0.00 92 1024.4
20210922055305 64 80 0.0 0.0 0.00 0.45 0.00 92 1024.5
20210922054802 64 80 0.0 0.0 0.00 0.45 0.00 91 1024.5
20210922054302 64 80 0.0 0.0 0.00 0.45 0.00 91 1024.6
20210922053803 63 80 0.0 0.0 0.00 0.45 0.00 91 1024.6
20210922053303 63 80 0.0 1.0 0.00 0.45 0.00 91 1024.6
20210922052803 63 102 1.0 3.0 0.00 0.45 0.00 92 1024.7
20210922052305 63 38 0.0 0.0 0.00 0.45 0.00 91 1024.7
20210922051803 63 38 0.0 0.0 0.00 0.45 0.00 91 1024.9
20210922051303 63 38 0.0 0.0 0.00 0.45 0.00 92 1024.9
20210922050803 62 38 0.0 0.0 0.00 0.45 0.00 91 1025.0
20210922050303 62 38 0.0 0.0 0.00 0.45 0.00 91 1025.0
20210922045803 62 38 0.0 0.0 0.00 0.45 0.00 91 1025.0
20210922045305 62 38 0.0 2.0 0.00 0.45 0.00 91 1025.0
20210922044803 62 65 0.0 2.0 0.00 0.45 0.00 91 1025.1
20210922044302 62 68 0.0 1.0 0.00 0.45 0.00 91 1025.0
20210922043802 62 117 0.0 0.0 0.00 0.45 0.00 91 1025.1
20210922043303 62 117 0.0 0.0 0.00 0.45 0.00 91 1025.1
20210922042802 62 117 0.0 0.0 0.00 0.45 0.00 91 1025.1
20210922042305 62 117 0.0 0.0 0.00 0.45 0.00 91 1025.2
20210922041802 62 117 0.0 0.0 0.00 0.45 0.00 91 1025.2
20210922041302 62 117 0.0 0.0 0.00 0.45 0.00 91 1025.3
20210922040802 62 117 0.0 0.0 0.00 0.45 0.00 91 1025.3
20210922040302 62 117 0.0 0.0 0.00 0.45 0.00 91 1025.4
20210922035802 62 117 0.0 0.0 0.00 0.45 0.45 91 1025.5
20210922035306 62 117 0.0 0.0 0.00 0.45 0.45 91 1025.5
20210922034803 62 117 0.0 0.0 0.00 0.45 0.45 91 1025.5
20210922034303 62 117 0.0 0.0 0.00 0.45 0.45 91 1025.5
20210922033803 62 117 0.0 0.0 0.00 0.45 0.45 90 1025.5
20210922033302 62 117 0.0 0.0 0.00 0.45 0.45 90 1025.6
20210922032802 62 117 0.0 0.0 0.00 0.45 0.45 90 1025.6
20210922032305 62 117 0.0 0.0 0.00 0.45 0.45 90 1025.6
20210922031803 61 117 0.0 0.0 0.00 0.45 0.45 90 1025.6
20210922031303 61 117 0.0 0.0 0.00 0.45 0.45 90 1025.6
20210922030803 61 117 0.0 0.0 0.00 0.45 0.45 90 1025.8
20210922030303 61 117 0.0 0.0 0.00 0.45 0.45 90 1025.8
20210922025803 61 117 0.0 0.0 0.00 0.45 0.45 90 1025.9
20210922025305 61 117 0.0 0.0 0.00 0.45 0.45 90 1025.8
20210922024802 61 117 0.0 0.0 0.00 0.45 0.45 90 1025.8
20210922024302 61 117 0.0 0.0 0.00 0.45 0.45 90 1025.9
20210922023802 61 117 0.0 0.0 0.00 0.45 0.45 90 1026.0
20210922023302 61 117 0.0 0.0 0.00 0.45 0.45 90 1026.1
20210922022802 60 117 0.0 0.0 0.00 0.45 0.45 90 1026.1
20210922022305 60 117 0.0 0.0 0.00 0.45 0.45 89 1026.1
20210922021802 60 117 0.0 0.0 0.00 0.45 0.45 89 1026.2
20210922021302 60 117 0.0 0.0 0.00 0.45 0.45 89 1026.1
20210922020802 60 117 0.0 0.0 0.00 0.45 0.45 89 1025.9
20210922020302 60 117 0.0 0.0 0.00 0.45 0.45 89 1025.9
20210922015804 60 117 0.0 0.0 0.00 0.45 0.45 89 1026.1
20210922015305 60 117 0.0 0.0 0.00 0.45 0.45 89 1026.1
20210922014803 60 117 0.0 0.0 0.00 0.45 0.45 89 1026.1
20210922014302 60 117 0.0 0.0 0.00 0.45 0.45 88 1026.1
20210922013803 60 117 0.0 0.0 0.00 0.45 0.45 88 1026.0
20210922013303 61 117 0.0 0.0 0.00 0.45 0.45 88 1026.1
20210922012803 61 117 0.0 0.0 0.00 0.45 0.45 88 1026.1
20210922012306 61 117 0.0 0.0 0.00 0.45 0.45 88 1026.1
20210922011803 61 117 0.0 0.0 0.00 0.45 0.45 88 1026.1
20210922011303 61 117 0.0 0.0 0.00 0.45 0.45 88 1026.1
20210922010803 61 117 0.0 0.0 0.00 0.45 0.45 88 1026.1
20210922010303 61 117 0.0 0.0 0.00 0.45 0.45 88 1026.1
20210922005803 61 117 0.0 0.0 0.00 0.45 0.45 88 1026.2
20210922005305 61 117 0.0 0.0 0.00 0.45 0.45 88 1026.2
20210922004802 61 117 0.0 0.0 0.00 0.45 0.45 87 1026.2
20210922004302 61 117 0.0 0.0 0.00 0.45 0.45 87 1026.4
20210922003802 60 117 0.0 0.0 0.00 0.45 0.45 87 1026.3
20210922003303 60 117 0.0 0.0 0.00 0.45 0.45 87 1026.3
20210922002802 60 117 0.0 0.0 0.00 0.45 0.45 86 1026.4
20210922002305 60 117 0.0 0.0 0.00 0.45 0.45 86 1026.4
20210922001802 60 117 0.0 0.0 0.00 0.45 0.45 86 1026.4
20210922001302 61 117 0.0 0.0 0.00 0.45 0.45 86 1026.3
20210922000802 61 117 0.0 0.0 0.00 0.45 0.45 85 1026.4
20210922000302 61 117 0.0 0.0 0.00 0.45 0.45 85 1026.4
20210921235802 61 117 0.0 0.0 0.00 0.45 0.45 85 1026.5
20210921235305 61 117 0.0 0.0 0.00 0.45 0.45 85 1026.5
20210921234803 61 117 0.0 0.0 0.00 0.45 0.45 84 1026.5
20210921234303 61 117 0.0 0.0 0.00 0.45 0.45 84 1026.4
20210921233803 62 117 0.0 0.0 0.00 0.45 0.45 84 1026.5
20210921233303 62 117 0.0 0.0 0.00 0.45 0.45 84 1026.4
20210921232803 62 117 0.0 0.0 0.00 0.45 0.45 83 1026.4
20210921232305 62 117 0.0 0.0 0.00 0.45 0.45 83 1026.5
20210921231803 62 117 0.0 0.0 0.00 0.45 0.45 82 1026.4
20210921231303 62 117 0.0 0.0 0.00 0.45 0.45 82 1026.4
20210921230803 62 117 0.0 0.0 0.00 0.45 0.45 82 1026.4
20210921230303 63 117 0.0 0.0 0.00 0.45 0.45 81 1026.4
20210921225803 63 117 0.0 0.0 0.00 0.45 0.45 81 1026.4
20210921225306 63 117 0.0 0.0 0.00 0.45 0.45 80 1026.4
20210921224802 64 117 0.0 0.0 0.00 0.45 0.45 80 1026.3
20210921224302 64 117 0.0 0.0 0.00 0.45 0.45 79 1026.4
20210921223803 64 117 0.0 0.0 0.00 0.45 0.45 79 1026.3
20210921223302 65 117 0.0 0.0 0.00 0.45 0.45 78 1026.3
20210921222802 65 117 0.0 0.0 0.00 0.45 0.45 78 1026.3
20210921222305 65 117 0.0 0.0 0.00 0.45 0.45 77 1026.4
20210921221803 66 117 0.0 0.0 0.00 0.45 0.45 77 1026.4
20210921221303 66 117 0.0 0.0 0.00 0.45 0.45 76 1026.5
20210921220802 67 117 0.0 0.0 0.00 0.45 0.45 75 1026.5
20210921220302 67 117 0.0 0.0 0.00 0.45 0.45 75 1026.5
20210921215802 67 117 0.0 0.0 0.00 0.45 0.45 74 1026.4
20210921215305 68 117 0.0 0.0 0.00 0.45 0.45 73 1026.4
20210921214802 68 117 0.0 3.0 0.00 0.45 0.45 72 1026.4
20210921214303 69 140 0.0 1.0 0.00 0.45 0.45 72 1026.5
20210921213803 69 199 0.0 0.0 0.00 0.45 0.45 71 1026.5
20210921213303 69 199 1.0 5.0 0.00 0.45 0.45 70 1026.5
20210921212804 70 243 0.0 1.0 0.00 0.45 0.45 69 1026.6
20210921212305 70 186 0.0 0.0 0.00 0.45 0.45 68 1026.5
20210921211802 71 184 1.0 3.0 0.00 0.45 0.45 68 1026.6
20210921211302 72 196 0.0 1.0 0.00 0.45 0.45 67 1026.5
20210921210802 72 120 0.0 1.0 0.00 0.45 0.45 66 1026.5
20210921210302 72 208 1.0 3.0 0.00 0.45 0.45 65 1026.5
20210921205803 72 243 1.0 7.0 0.00 0.45 0.45 64 1026.6
20210921205305 72 131 3.0 7.0 0.00 0.45 0.45 64 1026.6
20210921204803 72 235 1.0 6.0 0.00 0.45 0.45 65 1026.6
20210921204302 73 212 2.0 5.0 0.00 0.45 0.45 65 1026.6
20210921203803 73 123 1.0 3.0 0.00 0.45 0.45 66 1026.5
20210921203302 72 169 2.0 5.0 0.00 0.45 0.45 67 1026.5
20210921202803 72 358 0.0 3.0 0.00 0.45 0.45 68 1026.6
20210921202305 72 220 2.0 5.0 0.00 0.45 0.45 68 1026.6
20210921201803 72 227 0.0 5.0 0.00 0.45 0.45 68 1026.6
20210921201302 72 207 0.0 2.0 0.00 0.45 0.45 68 1026.7
20210921200802 72 205 0.0 0.0 0.00 0.45 0.45 68 1026.7
20210921200302 72 205 0.0 2.0 0.00 0.45 0.45 67 1026.7
20210921195802 72 197 1.0 2.0 0.00 0.45 0.45 66 1026.6
20210921195306 72 233 1.0 5.0 0.00 0.45 0.45 66 1026.6
20210921194803 72 215 2.0 6.0 0.00 0.45 0.45 67 1026.5
20210921194303 72 262 0.0 2.0 0.00 0.45 0.45 67 1026.6
20210921193803 72 140 1.0 3.0 0.00 0.45 0.45 67 1026.6
20210921193303 73 105 1.0 6.0 0.00 0.45 0.45 67 1026.6
20210921192803 72 201 1.0 5.0 0.00 0.45 0.45 69 1026.6
20210921192304 72 129 2.0 7.0 0.00 0.45 0.45 70 1026.7
20210921191802 71 217 0.0 3.0 0.00 0.45 0.45 70 1026.9
20210921191303 71 208 0.0 0.0 0.00 0.45 0.45 70 1026.9
20210921190804 71 208 1.0 2.0 0.00 0.45 0.45 70 1027.0
20210921190303 71 100 0.0 2.0 0.00 0.45 0.45 70 1027.0
20210921185803 71 134 1.0 3.0 0.00 0.45 0.45 70 1027.1
20210921185306 71 161 2.0 5.0 0.00 0.45 0.45 70 1027.1
20210921184802 71 78 0.0 1.0 0.00 0.45 0.45 70 1027.2
20210921184302 71 109 0.0 0.0 0.00 0.45 0.45 69 1027.2
20210921183802 72 109 0.0 2.0 0.00 0.45 0.45 69 1027.3
20210921183303 72 94 1.0 5.0 0.00 0.45 0.45 68 1027.4
20210921182803 72 69 1.0 3.0 0.00 0.45 0.45 68 1027.4
20210921182306 73 109 2.0 5.0 0.00 0.45 0.45 69 1027.4
20210921181802 72 195 2.0 7.0 0.00 0.45 0.45 70 1027.5
20210921181304 72 133 2.0 5.0 0.00 0.45 0.45 70 1027.5
20210921180803 72 251 3.0 6.0 0.00 0.45 0.45 70 1027.5
20210921180303 72 24 3.0 6.0 0.00 0.45 0.45 69 1027.6
20210921175803 72 156 1.0 2.0 0.00 0.45 0.45 70 1027.7
20210921175305 72 329 1.0 3.0 0.00 0.45 0.45 71 1027.8
20210921174802 72 232 0.0 2.0 0.00 0.45 0.45 71 1027.9
20210921174302 72 258 2.0 3.0 0.00 0.45 0.45 71 1028.0
20210921173802 72 196 0.0 3.0 0.00 0.45 0.45 71 1028.0
20210921173303 72 195 1.0 7.0 0.00 0.45 0.45 71 1028.1
20210921172803 72 26 2.0 8.0 0.00 0.45 0.45 72 1028.2
20210921172305 72 182 2.0 7.0 0.00 0.45 0.45 72 1028.3
20210921171803 72 86 1.0 6.0 0.00 0.45 0.45 73 1028.4
20210921171302 71 251 1.0 3.0 0.00 0.45 0.45 73 1028.4
20210921170803 71 220 3.0 5.0 0.00 0.45 0.45 74 1028.4
20210921170303 71 184 1.0 6.0 0.00 0.45 0.45 75 1028.4
20210921165802 71 62 1.0 6.0 0.00 0.45 0.45 75 1028.4
20210921165306 71 111 2.0 3.0 0.00 0.45 0.45 75 1028.5
20210921164802 71 194 2.0 5.0 0.00 0.45 0.45 76 1028.6
20210921164302 71 61 2.0 6.0 0.00 0.45 0.45 76 1028.7
20210921163803 70 151 2.0 6.0 0.00 0.45 0.45 77 1028.7
20210921163302 70 189 3.0 8.0 0.00 0.45 0.45 78 1028.7
20210921162803 70 225 1.0 3.0 0.00 0.45 0.45 79 1028.7
20210921162306 70 105 3.0 7.0 0.00 0.45 0.45 80 1028.8
20210921161803 70 280 1.0 3.0 0.00 0.45 0.45 80 1028.7
20210921161304 70 186 2.0 6.0 0.00 0.45 0.45 81 1028.8
20210921160803 70 96 2.0 5.0 0.00 0.45 0.45 81 1028.8
20210921160303 70 187 2.0 5.0 0.00 0.45 0.45 82 1028.9
20210921155803 69 154 2.0 3.0 0.00 0.45 0.45 83 1028.8
20210921155305 69 55 1.0 3.0 0.00 0.45 0.45 84 1028.8
20210921154802 68 111 3.0 7.0 0.00 0.45 0.45 84 1028.9
20210921154302 68 225 1.0 9.0 0.00 0.45 0.45 85 1029.0
20210921153803 68 30 2.0 7.0 0.00 0.45 0.45 86 1029.0
20210921153304 67 10 2.0 7.0 0.00 0.45 0.45 87 1029.1
20210921152803 66 135 2.0 6.0 0.00 0.45 0.45 88 1029.0
20210921152306 65 159 2.0 5.0 0.00 0.45 0.45 88 1029.1
20210921151805 65 82 2.0 7.0 0.00 0.45 0.45 88 1029.1
20210921151303 65 77 2.0 6.0 0.00 0.45 0.45 88 1029.3
20210921150803 65 78 2.0 5.0 0.00 0.45 0.45 89 1029.4